Time;durP1;ratioP1;P1;durP2;ratioP2;P2;SDS_P1;SDS_P2;PMS_P1;PMS_P2;Temp;Humidity;BMP_temperature;BMP_pressure;BME280_temperature;BME280_humidity;BME280_pressure;Samples;Min_cycle;Max_cycle;Signal;HPM_P1;HPM_P2
2021/09/27 00:00:29;;;;;;;8.20;7.47;;;19.50;81.70;;;;;;5053225;28;20449;-73
2021/09/27 00:02:56;;;;;;;8.30;7.20;;;19.50;81.90;;;;;;5052962;28;20806;-73
2021/09/27 00:05:24;;;;;;;9.30;7.20;;;19.50;82.00;;;;;;5053223;28;20485;-73
2021/09/27 00:07:52;;;;;;;7.87;7.07;;;19.40;82.00;;;;;;5053068;28;20461;-73
2021/09/27 00:10:21;;;;;;;9.80;8.63;;;19.40;82.20;;;;;;5053226;28;20442;-73
2021/09/27 00:12:50;;;;;;;9.17;8.30;;;19.40;82.40;;;;;;5053049;28;20453;-73
2021/09/27 00:15:19;;;;;;;9.10;8.30;;;19.40;82.40;;;;;;5052841;28;20449;-73
2021/09/27 00:17:46;;;;;;;7.90;7.13;;;19.30;82.20;;;;;;5053038;28;20465;-73
2021/09/27 00:20:14;;;;;;;7.80;7.00;;;19.30;82.10;;;;;;5052716;28;20448;-73
2021/09/27 00:22:41;;;;;;;7.50;6.80;;;19.30;82.20;;;;;;5052718;28;20931;-73
2021/09/27 00:25:11;;;;;;;8.90;7.73;;;19.30;82.40;;;;;;5052966;28;20476;-73
2021/09/27 00:27:38;;;;;;;8.40;7.70;;;19.30;82.80;;;;;;5052965;28;20465;-73
2021/09/27 00:30:06;;;;;;;9.03;8.13;;;19.20;83.10;;;;;;5053202;28;20444;-73
2021/09/27 00:32:33;;;;;;;7.80;7.10;;;19.20;83.40;;;;;;5056318;28;20461;-73
2021/09/27 00:35:00;;;;;;;10.63;8.37;;;19.20;83.60;;;;;;5056671;28;20441;-73
2021/09/27 00:37:27;;;;;;;7.77;7.17;;;19.20;83.80;;;;;;5056218;28;20982;-73
2021/09/27 00:39:54;;;;;;;10.30;7.93;;;19.20;83.90;;;;;;5056512;28;20446;-73
2021/09/27 00:42:22;;;;;;;11.73;8.83;;;19.30;83.90;;;;;;5056158;28;20452;-73
2021/09/27 00:44:49;;;;;;;8.70;8.00;;;19.30;83.80;;;;;;5056378;28;20814;-73
2021/09/27 00:47:16;;;;;;;8.70;7.90;;;19.30;83.90;;;;;;5056507;28;20462;-73
2021/09/27 00:49:43;;;;;;;9.00;8.10;;;19.30;84.00;;;;;;5056502;28;20448;-73
2021/09/27 00:52:10;;;;;;;8.47;6.50;;;19.30;84.00;;;;;;5056061;28;20969;-73
2021/09/27 00:54:38;;;;;;;9.10;8.20;;;19.30;84.10;;;;;;5056239;28;20464;-74
2021/09/27 00:57:11;;;;;;;8.73;7.93;;;19.30;84.10;;;;;;5056119;28;20492;-73
2021/09/27 00:59:41;;;;;;;9.23;7.00;;;19.20;84.10;;;;;;5056060;28;20469;-73
2021/09/27 01:02:10;;;;;;;10.90;8.07;;;19.30;84.30;;;;;;5056193;28;20857;-73
2021/09/27 01:04:37;;;;;;;9.83;8.80;;;19.30;84.40;;;;;;5055935;28;20473;-73
2021/09/27 01:07:16;;;;;;;12.73;8.43;;;19.30;84.50;;;;;;5055813;28;20480;-73
2021/09/27 01:10:07;;;;;;;8.70;7.77;;;19.20;84.50;;;;;;5056021;28;20429;-73
2021/09/27 01:13:16;;;;;;;9.00;7.83;;;19.20;84.50;;;;;;5055580;28;20962;-73
2021/09/27 01:15:55;;;;;;;8.80;7.90;;;19.20;84.70;;;;;;5045344;28;20465;-73
2021/09/27 01:18:35;;;;;;;8.20;7.40;;;19.20;84.80;;;;;;5055590;28;20957;-73
2021/09/27 01:21:27;;;;;;;9.30;8.13;;;19.20;84.80;;;;;;5055525;28;20785;-73
2021/09/27 01:24:28;;;;;;;9.50;8.60;;;19.20;85.00;;;;;;5055594;28;20448;-73
2021/09/27 01:27:29;;;;;;;8.90;6.30;;;19.20;85.00;;;;;;5055661;28;20818;-73
2021/09/27 01:30:19;;;;;;;9.00;8.20;;;19.10;84.90;;;;;;5055704;28;20436;-73
2021/09/27 01:32:48;;;;;;;9.43;8.27;;;19.10;85.00;;;;;;5055168;28;20950;-73
2021/09/27 01:35:32;;;;;;;11.53;8.53;;;19.10;85.20;;;;;;5055476;28;20426;-73
2021/09/27 01:38:13;;;;;;;9.03;8.13;;;19.10;85.50;;;;;;5055424;28;20469;-73
2021/09/27 01:40:51;;;;;;;10.67;9.10;;;19.00;85.40;;;;;;5055160;28;20914;-73
2021/09/27 01:43:27;;;;;;;9.90;8.90;;;19.00;85.60;;;;;;5055271;28;20430;-73
2021/09/27 01:45:59;;;;;;;9.00;8.20;;;19.00;85.80;;;;;;5055171;28;20472;-73
2021/09/27 01:48:32;;;;;;;10.43;8.27;;;19.00;85.70;;;;;;5055296;28;20441;-73
2021/09/27 01:51:01;;;;;;;12.40;9.10;;;18.90;85.70;;;;;;5054914;28;20842;-73
2021/09/27 01:53:33;;;;;;;8.37;7.67;;;18.90;85.80;;;;;;5055102;28;20439;-73
2021/09/27 01:56:07;;;;;;;8.83;8.10;;;18.80;85.90;;;;;;5055122;28;20482;-73
2021/09/27 01:58:51;;;;;;;9.07;8.17;;;18.80;86.30;;;;;;5055055;28;20425;-73
2021/09/27 02:01:25;;;;;;;9.53;8.60;;;18.80;86.60;;;;;;5054960;28;20430;-73
2021/09/27 02:03:58;;;;;;;9.73;8.83;;;18.70;86.90;;;;;;5054914;28;20792;-73
2021/09/27 02:06:28;;;;;;;9.77;8.70;;;18.70;87.10;;;;;;5054560;28;20995;-73
2021/09/27 02:09:01;;;;;;;8.93;8.03;;;18.60;87.30;;;;;;5054816;28;20452;-73
2021/09/27 02:11:30;;;;;;;8.80;7.93;;;18.60;87.50;;;;;;5054833;28;20437;-73
2021/09/27 02:14:05;;;;;;;8.50;7.70;;;18.60;87.60;;;;;;5054442;28;20817;-73
2021/09/27 02:16:38;;;;;;;10.90;9.20;;;18.60;87.70;;;;;;5054412;28;20523;-72
2021/09/27 02:19:12;;;;;;;9.07;8.27;;;18.50;87.90;;;;;;5055231;28;20491;-73
2021/09/27 02:21:43;;;;;;;9.60;8.70;;;18.60;88.00;;;;;;5054319;28;20938;-73
2021/09/27 02:24:17;;;;;;;11.50;8.73;;;18.50;88.00;;;;;;5054448;28;20777;-73
2021/09/27 02:26:46;;;;;;;9.80;8.93;;;18.50;88.20;;;;;;5054423;28;20465;-73
2021/09/27 02:29:13;;;;;;;10.33;7.50;;;18.40;88.20;;;;;;5054476;28;20456;-73
2021/09/27 02:31:46;;;;;;;8.73;7.93;;;18.40;88.20;;;;;;5054475;28;20457;-73
2021/09/27 02:34:22;;;;;;;9.10;8.20;;;18.40;88.20;;;;;;5054537;28;20429;-73
2021/09/27 02:36:55;;;;;;;9.13;8.17;;;18.50;88.20;;;;;;5054265;28;20464;-73
2021/09/27 02:39:26;;;;;;;7.87;7.17;;;18.50;88.20;;;;;;5053989;28;20426;-73
2021/09/27 02:41:58;;;;;;;9.43;6.93;;;18.50;88.20;;;;;;5054340;28;20426;-73
2021/09/27 02:44:25;;;;;;;7.93;7.17;;;18.50;88.00;;;;;;5053943;28;20429;-73
2021/09/27 02:46:56;;;;;;;11.63;7.70;;;18.50;88.00;;;;;;5054045;28;20470;-73
2021/09/27 02:49:27;;;;;;;7.47;6.77;;;18.50;87.80;;;;;;5053822;28;20904;-73
2021/09/27 02:51:56;;;;;;;9.43;7.73;;;18.50;87.50;;;;;;5054091;28;20793;-73
2021/09/27 02:54:32;;;;;;;8.43;7.27;;;18.60;87.20;;;;;;5053158;28;20441;-73
2021/09/27 02:57:13;;;;;;;8.80;7.90;;;18.60;86.90;;;;;;5053964;28;20596;-73
2021/09/27 02:59:48;;;;;;;9.83;8.83;;;18.60;87.50;;;;;;5053904;28;20448;-73
2021/09/27 03:02:22;;;;;;;12.60;7.73;;;18.60;87.30;;;;;;5053901;28;20434;-73
2021/09/27 03:05:04;;;;;;;7.47;6.77;;;18.60;86.30;;;;;;5053456;28;20465;-73
2021/09/27 03:07:43;;;;;;;8.03;7.23;;;18.60;86.10;;;;;;5053765;28;20465;-72
2021/09/27 03:10:24;;;;;;;8.63;7.93;;;18.60;85.80;;;;;;5053763;28;20797;-73
2021/09/27 03:12:56;;;;;;;8.20;7.50;;;18.60;85.40;;;;;;5053486;28;20918;-73
2021/09/27 03:15:49;;;;;;;8.70;7.90;;;18.60;85.20;;;;;;5053736;28;20484;-73
2021/09/27 03:18:22;;;;;;;13.13;7.60;;;18.60;84.90;;;;;;5053418;28;20433;-73
2021/09/27 03:21:01;;;;;;;9.37;8.30;;;18.60;84.60;;;;;;5053661;28;20467;-73
2021/09/27 03:23:37;;;;;;;8.30;7.50;;;18.60;84.30;;;;;;5053283;28;20798;-73
2021/09/27 03:26:13;;;;;;;8.40;7.60;;;18.60;84.30;;;;;;5053394;28;20485;-73
2021/09/27 03:28:51;;;;;;;8.70;7.60;;;18.50;84.30;;;;;;5053453;28;20432;-73
2021/09/27 03:31:25;;;;;;;9.40;8.50;;;18.50;84.40;;;;;;5053047;28;20461;-73
2021/09/27 03:34:03;;;;;;;8.70;7.80;;;18.50;84.40;;;;;;5053461;28;20437;-73
2021/09/27 03:36:50;;;;;;;11.00;8.50;;;18.40;84.40;;;;;;5053361;28;20465;-72
2021/09/27 03:39:23;;;;;;;8.67;7.97;;;18.40;84.50;;;;;;5053398;28;20500;-73
2021/09/27 03:41:53;;;;;;;9.37;8.47;;;18.40;84.60;;;;;;5053418;28;20433;-73
2021/09/27 03:44:28;;;;;;;18.53;9.10;;;18.40;84.70;;;;;;5053065;28;20445;-73
2021/09/27 03:47:02;;;;;;;8.63;7.83;;;18.40;84.70;;;;;;5053270;28;20462;-73
2021/09/27 03:49:35;;;;;;;9.17;8.00;;;18.30;84.40;;;;;;5053854;28;20433;-73
2021/09/27 03:52:06;;;;;;;8.43;7.63;;;18.30;84.10;;;;;;5053291;28;20398;-73
2021/09/27 03:54:36;;;;;;;8.73;7.93;;;18.30;84.00;;;;;;5053297;28;20430;-73
2021/09/27 03:57:09;;;;;;;8.67;7.87;;;18.20;83.80;;;;;;5052849;28;20958;-72
2021/09/27 03:59:40;;;;;;;8.67;7.87;;;18.20;83.80;;;;;;5056050;28;20426;-72
2021/09/27 04:02:13;;;;;;;8.20;7.50;;;18.10;83.80;;;;;;5055968;28;20465;-72
2021/09/27 04:04:53;;;;;;;8.20;7.40;;;18.00;83.90;;;;;;5057866;28;20426;-73
2021/09/27 04:07:29;;;;;;;9.37;8.40;;;18.00;84.80;;;;;;5061165;28;20465;-74
2021/09/27 04:10:07;;;;;;;11.07;7.87;;;18.00;86.40;;;;;;5060438;28;20486;-74
2021/09/27 04:12:42;;;;;;;10.03;7.83;;;18.10;87.50;;;;;;5057495;28;20483;-73
2021/09/27 04:15:20;;;;;;;8.40;7.47;;;18.10;88.00;;;;;;5058187;28;20430;-73
2021/09/27 04:18:03;;;;;;;11.53;8.27;;;18.10;88.30;;;;;;5057386;28;20465;-73
2021/09/27 04:20:42;;;;;;;9.07;8.27;;;18.10;88.50;;;;;;5056990;28;20441;-73
2021/09/27 04:23:22;;;;;;;9.60;8.70;;;18.10;88.90;;;;;;5056189;28;20435;-73
2021/09/27 04:25:57;;;;;;;8.63;7.77;;;18.20;89.40;;;;;;5056953;28;20229;-73
2021/09/27 04:28:59;;;;;;;10.10;9.10;;;18.20;89.30;;;;;;5056871;28;20478;-73
2021/09/27 04:31:41;;;;;;;8.47;7.67;;;18.30;89.20;;;;;;5045780;28;20839;-73
2021/09/27 04:34:24;;;;;;;11.00;9.47;;;18.30;89.10;;;;;;5056755;28;20421;-73
2021/09/27 04:36:55;;;;;;;9.67;8.70;;;18.30;89.10;;;;;;5056346;28;20464;-73
2021/09/27 04:39:27;;;;;;;8.63;7.83;;;18.30;89.10;;;;;;5056584;28;20430;-73
2021/09/27 04:42:14;;;;;;;9.13;8.33;;;18.20;89.30;;;;;;5056205;28;20440;-73
2021/09/27 04:44:55;;;;;;;8.97;8.13;;;18.20;89.50;;;;;;5056233;28;20943;-73
2021/09/27 04:47:42;;;;;;;9.60;8.60;;;18.20;89.60;;;;;;5056339;28;20511;-73
2021/09/27 04:50:22;;;;;;;9.07;8.17;;;18.20;89.50;;;;;;5056331;28;20432;-73
2021/09/27 04:52:56;;;;;;;8.73;7.83;;;18.20;89.60;;;;;;5056270;28;20425;-73
2021/09/27 04:55:45;;;;;;;8.57;7.77;;;18.30;89.70;;;;;;5056435;28;20441;-73
2021/09/27 04:58:35;;;;;;;9.30;7.70;;;18.20;89.80;;;;;;5056273;28;20775;-73
2021/09/27 05:01:14;;;;;;;10.73;7.77;;;18.20;90.00;;;;;;5056207;28;20500;-73
2021/09/27 05:03:55;;;;;;;9.23;8.23;;;18.30;90.10;;;;;;5056470;28;20425;-73
2021/09/27 05:06:39;;;;;;;9.70;8.47;;;18.40;90.10;;;;;;5055996;28;20485;-73
2021/09/27 05:09:18;;;;;;;10.40;8.50;;;18.40;89.90;;;;;;5056087;28;20786;-73
2021/09/27 05:12:07;;;;;;;8.07;7.30;;;18.40;89.80;;;;;;5056623;28;20448;-73
2021/09/27 05:15:06;;;;;;;9.53;8.60;;;18.30;89.50;;;;;;5055922;28;20484;-73
2021/09/27 05:17:54;;;;;;;10.50;8.73;;;18.40;89.70;;;;;;5030244;28;20469;-73
2021/09/27 05:20:34;;;;;;;10.23;8.30;;;18.40;89.70;;;;;;5056098;28;20444;-73
2021/09/27 05:23:12;;;;;;;12.10;9.57;;;18.40;89.20;;;;;;5055565;28;20434;-73
2021/09/27 05:25:55;;;;;;;13.87;8.27;;;18.30;89.70;;;;;;5055577;28;20477;-73
2021/09/27 05:28:42;;;;;;;9.40;8.50;;;18.30;89.80;;;;;;5055833;28;20429;-73
2021/09/27 05:31:32;;;;;;;13.23;9.30;;;18.30;90.00;;;;;;5048448;28;20827;-73
2021/09/27 05:34:06;;;;;;;10.70;9.60;;;18.30;90.10;;;;;;5053004;28;20816;-73
2021/09/27 05:36:50;;;;;;;9.43;8.53;;;18.30;90.10;;;;;;5055099;28;20473;-73
2021/09/27 05:39:32;;;;;;;12.73;9.60;;;18.20;90.00;;;;;;5055504;28;20436;-74
2021/09/27 05:42:09;;;;;;;9.90;8.90;;;18.30;90.10;;;;;;5055415;28;20433;-74
2021/09/27 05:44:48;;;;;;;10.60;9.50;;;18.30;90.00;;;;;;5055311;28;20433;-74
2021/09/27 05:47:26;;;;;;;9.73;8.80;;;18.30;90.00;;;;;;5055131;28;20492;-73
2021/09/27 05:50:03;;;;;;;9.40;8.43;;;18.30;90.00;;;;;;5055322;28;20438;-74
2021/09/27 05:52:40;;;;;;;10.20;9.30;;;18.40;89.70;;;;;;5055173;28;20441;-74
2021/09/27 05:55:16;;;;;;;8.73;7.90;;;18.40;89.50;;;;;;5055254;28;20442;-74
2021/09/27 05:57:49;;;;;;;11.87;8.40;;;18.40;89.10;;;;;;5055148;28;20469;-74
2021/09/27 06:00:24;;;;;;;10.53;9.57;;;18.40;89.00;;;;;;5055099;28;20426;-73
2021/09/27 06:03:05;;;;;;;16.37;9.27;;;18.40;88.50;;;;;;5054841;28;20903;-74
2021/09/27 06:05:43;;;;;;;9.60;8.67;;;18.40;88.30;;;;;;5055202;28;20466;-74
2021/09/27 06:08:16;;;;;;;12.73;10.50;;;18.50;88.20;;;;;;5054815;28;20925;-73
2021/09/27 06:10:47;;;;;;;10.13;9.00;;;18.50;88.10;;;;;;5055086;28;20441;-74
2021/09/27 06:13:20;;;;;;;12.93;10.07;;;18.50;87.90;;;;;;5054670;28;20907;-74
2021/09/27 06:15:52;;;;;;;10.03;9.13;;;18.50;87.80;;;;;;5054790;28;20442;-73
2021/09/27 06:18:41;;;;;;;10.40;9.00;;;18.50;87.70;;;;;;5054834;28;20441;-73
2021/09/27 06:21:25;;;;;;;13.83;8.97;;;18.50;87.70;;;;;;5054713;28;20933;-73
2021/09/27 06:24:08;;;;;;;13.10;10.37;;;18.50;87.80;;;;;;5054861;28;20434;-73
2021/09/27 06:26:44;;;;;;;10.53;9.30;;;18.50;88.20;;;;;;5054824;28;20491;-73
2021/09/27 06:29:19;;;;;;;10.43;9.30;;;18.50;88.30;;;;;;5054730;28;20528;-74
2021/09/27 06:31:59;;;;;;;13.43;10.43;;;18.50;88.50;;;;;;5054298;28;20951;-73
2021/09/27 06:34:34;;;;;;;11.20;10.07;;;18.50;88.80;;;;;;5054552;28;20406;-73
2021/09/27 06:37:02;;;;;;;14.03;10.27;;;18.60;89.10;;;;;;5054558;28;20472;-73
2021/09/27 06:39:31;;;;;;;13.13;9.37;;;18.60;89.10;;;;;;5054549;28;20446;-73
2021/09/27 06:41:58;;;;;;;10.73;9.53;;;18.60;89.10;;;;;;5054475;28;20425;-73
2021/09/27 06:44:25;;;;;;;15.07;10.63;;;18.50;89.20;;;;;;5054540;28;20453;-73
2021/09/27 06:46:54;;;;;;;11.83;9.63;;;18.50;89.30;;;;;;5054272;28;20505;-73
2021/09/27 06:49:22;;;;;;;11.27;10.17;;;18.40;89.70;;;;;;5054187;28;20430;-74
2021/09/27 06:51:49;;;;;;;11.40;10.30;;;18.50;89.90;;;;;;5054201;28;20453;-73
2021/09/27 06:54:19;;;;;;;10.87;9.87;;;18.50;90.00;;;;;;5054152;28;20441;-73
2021/09/27 06:56:47;;;;;;;12.87;9.70;;;18.50;90.00;;;;;;5054019;28;20536;-72
2021/09/27 06:59:14;;;;;;;10.57;9.57;;;18.50;90.10;;;;;;5054039;28;20426;-73
2021/09/27 07:01:41;;;;;;;11.07;9.90;;;18.60;90.10;;;;;;5054036;28;20446;-73
2021/09/27 07:04:09;;;;;;;11.87;10.30;;;18.60;89.80;;;;;;5053945;28;20456;-73
2021/09/27 07:06:36;;;;;;;10.90;9.80;;;18.70;89.80;;;;;;5053446;28;20489;-73
2021/09/27 07:09:03;;;;;;;11.13;10.00;;;18.80;89.40;;;;;;5054029;28;20429;-73
2021/09/27 07:11:30;;;;;;;11.10;10.10;;;18.90;89.10;;;;;;5053585;28;20900;-73
2021/09/27 07:13:57;;;;;;;11.40;10.20;;;19.10;89.20;;;;;;5053785;28;20441;-73
2021/09/27 07:16:24;;;;;;;10.97;9.90;;;19.10;88.40;;;;;;5054105;28;20477;-73
2021/09/27 07:18:51;;;;;;;10.53;9.43;;;19.20;88.10;;;;;;5053703;28;20438;-74
2021/09/27 07:21:19;;;;;;;12.47;10.40;;;19.20;87.90;;;;;;5053618;28;20422;-73
2021/09/27 07:23:46;;;;;;;11.00;10.00;;;19.30;88.00;;;;;;5053604;28;20442;-73
2021/09/27 07:26:15;;;;;;;11.97;9.23;;;19.40;87.90;;;;;;5053402;28;21005;-73
2021/09/27 07:28:43;;;;;;;11.33;9.50;;;19.50;87.40;;;;;;5053594;28;20437;-73
2021/09/27 07:31:10;;;;;;;12.77;9.33;;;19.60;86.60;;;;;;5053675;28;20871;-73
2021/09/27 07:33:38;;;;;;;11.07;9.80;;;19.80;86.00;;;;;;5053556;28;20449;-73
2021/09/27 07:36:06;;;;;;;11.20;10.07;;;19.90;84.80;;;;;;5053555;28;20458;-73
2021/09/27 07:38:36;;;;;;;12.00;10.83;;;20.10;84.30;;;;;;5053458;28;20437;-73
2021/09/27 07:41:03;;;;;;;10.43;9.43;;;20.20;83.20;;;;;;5052827;28;20507;-74
2021/09/27 07:43:30;;;;;;;16.37;9.87;;;20.30;82.90;;;;;;5053948;28;20471;-70
2021/09/27 07:45:57;;;;;;;13.20;9.37;;;20.40;82.20;;;;;;5053104;28;20456;-70
2021/09/27 07:48:24;;;;;;;10.37;8.90;;;20.40;82.00;;;;;;5053256;28;20472;-70
2021/09/27 07:50:53;;;;;;;10.10;9.20;;;20.50;81.60;;;;;;5053236;28;20432;-70
2021/09/27 07:53:21;;;;;;;9.90;9.10;;;20.60;81.20;;;;;;5053380;28;20484;-70
2021/09/27 07:55:50;;;;;;;10.57;8.57;;;20.60;80.80;;;;;;5053543;28;20441;-70
2021/09/27 07:58:18;;;;;;;11.30;10.20;;;20.70;80.80;;;;;;5053516;28;20442;-70
2021/09/27 08:00:46;;;;;;;11.03;9.30;;;20.70;80.80;;;;;;5053450;28;20531;-70
2021/09/27 08:03:13;;;;;;;11.23;10.13;;;20.70;80.70;;;;;;5053110;28;20465;-70
2021/09/27 08:05:40;;;;;;;9.23;8.40;;;20.80;80.60;;;;;;5053102;28;20445;-70
2021/09/27 08:08:08;;;;;;;10.53;9.53;;;20.80;80.60;;;;;;5053009;28;20473;-70
2021/09/27 08:10:36;;;;;;;9.50;8.57;;;20.80;80.30;;;;;;5052731;28;20847;-70
2021/09/27 08:13:05;;;;;;;9.43;8.33;;;20.80;80.10;;;;;;5052981;28;20457;-70
2021/09/27 08:15:34;;;;;;;10.60;9.50;;;20.80;79.90;;;;;;5052894;28;20457;-70
2021/09/27 08:18:03;;;;;;;9.50;8.53;;;20.90;80.00;;;;;;5052936;28;20468;-69
2021/09/27 08:20:33;;;;;;;9.20;8.30;;;20.90;80.00;;;;;;5053182;28;20448;-69
2021/09/27 08:23:00;;;;;;;10.37;8.00;;;21.20;79.50;;;;;;5052905;28;20441;-69
2021/09/27 08:25:28;;;;;;;8.40;7.60;;;21.30;78.70;;;;;;5052918;28;20452;-69
2021/09/27 08:27:56;;;;;;;8.67;7.97;;;21.50;78.40;;;;;;5052910;28;20916;-70
2021/09/27 08:30:28;;;;;;;8.07;7.47;;;21.60;77.70;;;;;;5052940;28;20449;-70
2021/09/27 08:32:55;;;;;;;8.83;7.20;;;21.80;76.70;;;;;;5052805;28;20453;-70
2021/09/27 08:35:25;;;;;;;7.87;7.13;;;21.80;75.70;;;;;;5052613;28;20895;-70
2021/09/27 08:37:53;;;;;;;9.00;7.27;;;21.80;75.50;;;;;;5052774;28;20891;-69
2021/09/27 08:40:33;;;;;;;8.30;7.60;;;21.90;75.20;;;;;;5052850;28;20449;-69
2021/09/27 08:43:09;;;;;;;8.30;7.07;;;21.90;75.20;;;;;;5052470;28;20899;-69
2021/09/27 08:45:38;;;;;;;7.17;6.37;;;22.00;75.10;;;;;;5052798;28;20437;-70
2021/09/27 08:48:22;;;;;;;6.80;6.20;;;22.00;74.60;;;;;;5053430;28;20492;-70
2021/09/27 08:50:49;;;;;;;7.37;6.67;;;22.10;74.10;;;;;;5052471;28;20930;-70
2021/09/27 08:53:23;;;;;;;10.83;6.97;;;22.10;73.90;;;;;;5054534;28;20441;-70
2021/09/27 08:55:52;;;;;;;7.60;7.00;;;22.00;73.60;;;;;;5056092;28;20919;-70
2021/09/27 08:58:31;;;;;;;8.47;6.23;;;21.90;74.10;;;;;;5056158;28;20422;-70
2021/09/27 09:01:04;;;;;;;7.00;6.30;;;21.90;74.60;;;;;;5056158;28;20495;-70
2021/09/27 09:03:41;;;;;;;7.27;6.57;;;21.90;74.20;;;;;;5056034;28;20426;-70
2021/09/27 09:06:15;;;;;;;6.50;6.00;;;21.90;74.60;;;;;;5055891;28;20472;-70
2021/09/27 09:08:45;;;;;;;7.53;6.00;;;21.90;74.60;;;;;;5056199;28;20426;-70
2021/09/27 09:11:19;;;;;;;6.60;5.70;;;21.90;74.40;;;;;;5055970;28;20426;-70
2021/09/27 09:13:49;;;;;;;6.60;5.67;;;22.00;74.50;;;;;;5056212;28;20430;-70
2021/09/27 09:16:20;;;;;;;6.53;6.03;;;22.00;74.60;;;;;;5055816;28;20469;-70
2021/09/27 09:18:49;;;;;;;6.30;5.70;;;22.00;74.30;;;;;;5055828;28;20429;-70
2021/09/27 09:21:20;;;;;;;6.60;6.00;;;22.10;74.40;;;;;;5055573;28;20437;-70
2021/09/27 09:23:51;;;;;;;5.97;5.37;;;22.20;74.00;;;;;;5055732;28;20426;-70
2021/09/27 09:26:22;;;;;;;5.77;5.27;;;22.20;73.70;;;;;;5055831;28;20512;-70
2021/09/27 09:28:51;;;;;;;6.13;5.57;;;22.30;74.00;;;;;;5055277;28;20848;-70
2021/09/27 09:31:21;;;;;;;10.33;5.63;;;22.30;73.80;;;;;;5055407;28;20925;-70
2021/09/27 09:33:53;;;;;;;5.77;5.37;;;22.30;74.10;;;;;;5055552;28;20438;-70
2021/09/27 09:36:24;;;;;;;6.27;5.70;;;22.20;74.10;;;;;;5055471;28;20473;-70
2021/09/27 09:38:51;;;;;;;5.30;4.73;;;22.10;74.80;;;;;;5055111;28;20892;-70
2021/09/27 09:41:19;;;;;;;4.97;4.53;;;22.00;75.10;;;;;;5055056;28;20799;-70
2021/09/27 09:43:49;;;;;;;4.90;4.43;;;22.00;75.20;;;;;;5055288;28;20453;-70
2021/09/27 09:46:28;;;;;;;10.13;5.03;;;22.00;75.40;;;;;;5054868;28;20849;-70
2021/09/27 09:49:08;;;;;;;4.70;4.30;;;22.00;75.30;;;;;;5055254;28;20456;-70
2021/09/27 09:51:40;;;;;;;5.27;3.77;;;22.00;75.20;;;;;;5055087;28;20425;-70
2021/09/27 09:54:17;;;;;;;4.93;3.87;;;22.00;75.30;;;;;;5055699;28;20434;-70
2021/09/27 09:56:48;;;;;;;3.77;3.47;;;22.10;75.00;;;;;;5055040;28;20465;-70
2021/09/27 09:59:21;;;;;;;6.23;4.23;;;22.30;74.60;;;;;;5055015;28;20806;-70
2021/09/27 10:01:52;;;;;;;3.97;3.47;;;22.50;73.90;;;;;;5054555;28;20433;-70
2021/09/27 10:04:25;;;;;;;3.57;3.07;;;22.70;72.10;;;;;;5054436;28;20811;-70
2021/09/27 10:07:05;;;;;;;3.90;3.53;;;22.90;71.90;;;;;;5054672;28;20485;-70
2021/09/27 10:09:34;;;;;;;5.27;3.33;;;22.80;71.50;;;;;;5054851;28;20457;-69
2021/09/27 10:12:04;;;;;;;3.30;3.00;;;23.00;71.90;;;;;;5054733;28;20783;-69
2021/09/27 10:14:37;;;;;;;4.70;3.13;;;23.10;71.60;;;;;;5054676;28;20449;-69
2021/09/27 10:17:26;;;;;;;7.73;3.73;;;23.20;70.40;;;;;;5054626;28;20461;-69
2021/09/27 10:19:57;;;;;;;3.77;3.40;;;23.30;69.40;;;;;;5054887;28;20464;-69
2021/09/27 10:22:27;;;;;;;3.50;3.20;;;23.40;69.10;;;;;;5054271;28;20923;-69
2021/09/27 10:24:56;;;;;;;7.33;3.00;;;23.50;68.30;;;;;;5054776;28;20442;-69
2021/09/27 10:27:29;;;;;;;6.20;2.97;;;23.60;68.10;;;;;;5054776;28;20496;-69
2021/09/27 10:29:59;;;;;;;7.20;3.37;;;23.70;67.80;;;;;;5054456;28;20426;-69
2021/09/27 10:32:34;;;;;;;5.63;3.60;;;24.00;67.00;;;;;;5054280;28;20458;-69
2021/09/27 10:35:06;;;;;;;2.80;2.60;;;24.20;65.10;;;;;;5054077;28;20929;-70
2021/09/27 10:37:34;;;;;;;4.73;3.17;;;24.30;64.50;;;;;;5053963;28;20827;-70
2021/09/27 10:40:01;;;;;;;4.60;3.03;;;24.50;63.40;;;;;;5058031;28;20501;-68
2021/09/27 10:42:39;;;;;;;4.70;3.00;;;24.70;62.10;;;;;;5055877;28;20453;-69
2021/09/27 10:45:08;;;;;;;6.40;3.03;;;24.60;61.00;;;;;;5054588;28;20425;-69
2021/09/27 10:47:40;;;;;;;3.20;1.77;;;24.50;60.60;;;;;;5054024;28;20486;-69
2021/09/27 10:50:12;;;;;;;5.00;2.80;;;24.50;60.40;;;;;;5054309;28;20425;-69
2021/09/27 10:52:46;;;;;;;6.47;2.73;;;24.40;60.10;;;;;;5053999;28;20433;-69
2021/09/27 10:55:24;;;;;;;4.93;2.47;;;24.20;60.80;;;;;;5054002;28;20430;-69
2021/09/27 10:57:55;;;;;;;7.30;2.20;;;24.10;61.50;;;;;;5053909;28;20461;-69
2021/09/27 11:00:36;;;;;;;3.90;2.20;;;24.10;60.80;;;;;;5053900;28;20426;-69
2021/09/27 11:03:12;;;;;;;5.10;2.20;;;24.10;60.50;;;;;;5053811;28;20429;-69
2021/09/27 11:05:51;;;;;;;3.93;2.20;;;24.10;61.00;;;;;;5053828;28;20433;-69
2021/09/27 11:08:35;;;;;;;3.57;2.10;;;23.90;61.50;;;;;;5053397;28;20465;-69
2021/09/27 11:11:17;;;;;;;4.60;2.30;;;23.80;62.50;;;;;;5053865;28;20430;-69
2021/09/27 11:13:44;;;;;;;6.40;2.60;;;23.70;62.80;;;;;;5053660;28;20463;-69
2021/09/27 11:16:16;;;;;;;6.13;2.67;;;23.70;63.40;;;;;;5052576;28;20476;-69
2021/09/27 11:18:55;;;;;;;3.63;1.87;;;23.80;62.60;;;;;;5053245;28;20426;-69
2021/09/27 11:21:40;;;;;;;2.17;1.87;;;24.00;61.70;;;;;;5053592;28;20430;-69
2021/09/27 11:24:24;;;;;;;3.47;1.70;;;24.10;60.40;;;;;;5053307;28;20438;-69
2021/09/27 11:27:13;;;;;;;6.30;2.40;;;24.20;60.70;;;;;;5053470;28;20801;-69
2021/09/27 11:29:52;;;;;;;6.03;1.90;;;24.30;59.60;;;;;;5053519;28;20426;-69
2021/09/27 11:32:45;;;;;;;4.30;2.10;;;24.50;59.30;;;;;;5053420;28;20453;-69
2021/09/27 11:35:34;;;;;;;4.40;2.07;;;24.70;58.80;;;;;;5053730;28;20437;-69
2021/09/27 11:38:34;;;;;;;3.03;1.67;;;24.90;59.00;;;;;;5053353;28;20458;-70
2021/09/27 11:41:19;;;;;;;2.27;1.63;;;24.90;58.40;;;;;;5053285;28;20453;-70
2021/09/27 11:43:54;;;;;;;2.67;2.17;;;24.90;58.10;;;;;;5052863;28;20453;-69
2021/09/27 11:46:26;;;;;;;4.10;2.17;;;25.00;58.90;;;;;;5052947;28;20841;-70
2021/09/27 11:49:00;;;;;;;2.60;1.80;;;25.20;57.30;;;;;;5053319;28;20492;-70
2021/09/27 11:51:40;;;;;;;5.30;2.33;;;25.30;57.40;;;;;;5053341;28;20469;-69
2021/09/27 11:54:19;;;;;;;2.00;1.80;;;25.20;57.70;;;;;;5053015;28;20434;-69
2021/09/27 11:56:56;;;;;;;3.83;1.40;;;24.90;57.70;;;;;;5053660;28;20465;-69
2021/09/27 11:59:28;;;;;;;6.03;1.67;;;24.80;57.80;;;;;;5053173;28;20425;-69
2021/09/27 12:02:04;;;;;;;5.53;1.90;;;24.90;58.20;;;;;;5052869;28;20891;-70
2021/09/27 12:04:46;;;;;;;4.93;2.13;;;25.10;57.80;;;;;;5053198;28;20426;-69
2021/09/27 12:07:17;;;;;;;2.53;1.50;;;25.60;57.40;;;;;;5052848;28;20978;-70
2021/09/27 12:09:49;;;;;;;2.83;1.80;;;26.00;55.70;;;;;;5053168;28;20437;-69
2021/09/27 12:12:24;;;;;;;2.70;1.90;;;26.10;54.70;;;;;;5053110;28;20430;-69
2021/09/27 12:14:51;;;;;;;2.10;1.60;;;26.00;54.80;;;;;;5053112;28;20429;-70
2021/09/27 12:17:20;;;;;;;5.23;1.80;;;26.00;54.40;;;;;;5053021;28;20465;-70
2021/09/27 12:19:50;;;;;;;8.30;1.87;;;25.70;54.20;;;;;;5053043;28;20942;-70
2021/09/27 12:22:26;;;;;;;4.50;1.60;;;25.40;54.50;;;;;;5053412;28;20453;-70
2021/09/27 12:24:53;;;;;;;4.83;1.97;;;25.30;55.50;;;;;;5052960;28;20436;-70
2021/09/27 12:27:22;;;;;;;4.90;1.90;;;25.30;55.40;;;;;;5055121;28;20458;-70
2021/09/27 12:29:56;;;;;;;3.83;2.10;;;25.30;55.70;;;;;;5056783;28;20943;-70
2021/09/27 12:32:29;;;;;;;7.40;2.00;;;25.30;56.00;;;;;;5056435;28;20552;-70
2021/09/27 12:35:00;;;;;;;3.50;2.00;;;25.30;55.70;;;;;;5056388;28;20899;-70
2021/09/27 12:37:35;;;;;;;4.13;2.20;;;25.30;55.60;;;;;;5056575;28;20465;-70
2021/09/27 12:40:02;;;;;;;4.63;2.03;;;25.20;55.90;;;;;;5056637;28;20499;-70
2021/09/27 12:42:36;;;;;;;2.57;1.97;;;25.00;55.80;;;;;;5056505;28;20458;-69
2021/09/27 12:45:14;;;;;;;2.67;1.80;;;24.90;56.60;;;;;;5056530;28;20433;-69
2021/09/27 12:47:42;;;;;;;4.23;2.37;;;24.70;56.90;;;;;;5056731;28;20577;-70
2021/09/27 12:50:10;;;;;;;3.30;2.10;;;24.40;57.50;;;;;;5056431;28;20450;-70
2021/09/27 12:52:43;;;;;;;4.83;2.50;;;24.30;58.30;;;;;;5056443;28;20429;-70
2021/09/27 12:55:13;;;;;;;5.57;2.30;;;24.20;58.40;;;;;;5056355;28;20434;-70
2021/09/27 12:57:42;;;;;;;4.50;2.03;;;24.10;58.70;;;;;;5056054;28;20467;-69
2021/09/27 13:00:15;;;;;;;3.00;1.90;;;24.00;58.50;;;;;;5056280;28;20458;-69
2021/09/27 13:02:44;;;;;;;5.60;2.50;;;23.90;58.30;;;;;;5056373;28;20446;-70
2021/09/27 13:05:16;;;;;;;5.87;2.73;;;23.80;58.80;;;;;;5056100;28;20430;-69
2021/09/27 13:07:47;;;;;;;3.80;1.80;;;23.80;59.10;;;;;;5055857;28;20562;-69
2021/09/27 13:10:23;;;;;;;4.17;1.90;;;23.70;59.60;;;;;;5056062;28;20445;-69
2021/09/27 13:13:14;;;;;;;3.60;1.90;;;23.70;59.80;;;;;;5056584;28;20511;-69
2021/09/27 13:15:43;;;;;;;2.93;2.50;;;23.60;61.00;;;;;;5055674;28;20899;-69
2021/09/27 13:18:13;;;;;;;7.53;3.10;;;23.60;61.40;;;;;;5055954;28;20428;-69